createdAt,value
2018-08-16T00:00:39.871Z,21.16
2018-08-16T00:03:09.875Z,21.16
2018-08-16T00:05:39.600Z,21.12
2018-08-16T00:08:09.394Z,21.17
2018-08-16T00:10:39.159Z,21.25
2018-08-16T00:13:08.908Z,21.44
2018-08-16T00:15:38.632Z,21.27
2018-08-16T00:18:08.319Z,21.23
2018-08-16T00:20:37.996Z,21.24
2018-08-16T00:23:07.653Z,21.65
2018-08-16T00:25:37.576Z,21.29
2018-08-16T00:28:07.801Z,21.58
2018-08-16T00:30:37.587Z,22.02
2018-08-16T00:33:07.360Z,22.22
2018-08-16T00:35:37.053Z,22.25
2018-08-16T00:38:06.741Z,22.24
2018-08-16T00:40:36.518Z,22.26
2018-08-16T00:43:06.657Z,22.31
2018-08-16T00:45:36.401Z,22.36
2018-08-16T00:48:06.203Z,22.19
2018-08-16T00:50:35.997Z,22.26
2018-08-16T00:53:06.015Z,22.23
2018-08-16T00:55:35.685Z,22.16
2018-08-16T00:58:05.944Z,22.12
2018-08-16T01:00:35.654Z,22.21
2018-08-16T01:03:05.506Z,22.10
2018-08-16T01:05:35.279Z,21.78
2018-08-16T01:08:05.053Z,21.75
2018-08-16T01:10:34.756Z,21.70
2018-08-16T01:13:04.700Z,21.86
2018-08-16T01:15:34.543Z,21.92
2018-08-16T01:18:04.452Z,21.50
2018-08-16T01:20:34.175Z,21.67
2018-08-16T01:23:03.874Z,21.83
2018-08-16T01:25:33.714Z,22.02
2018-08-16T01:28:03.401Z,21.44
2018-08-16T01:30:33.111Z,21.76
2018-08-16T01:33:02.850Z,21.78
2018-08-16T01:35:32.585Z,21.80
2018-08-16T01:38:02.495Z,21.80
2018-08-16T01:40:32.365Z,21.91
2018-08-16T01:43:02.172Z,21.28
2018-08-16T01:45:31.977Z,21.32
2018-08-16T01:48:01.925Z,21.51
2018-08-16T01:50:31.634Z,21.60
2018-08-16T01:53:01.482Z,21.57
2018-08-16T01:55:31.319Z,21.60
2018-08-16T01:58:01.012Z,21.31
2018-08-16T02:00:30.877Z,21.19
2018-08-16T02:03:00.713Z,21.54
2018-08-16T02:05:30.413Z,21.33
2018-08-16T02:08:00.235Z,21.77
2018-08-16T02:10:30.108Z,21.01
2018-08-16T02:12:59.893Z,21.30
2018-08-16T02:15:29.654Z,21.41
2018-08-16T02:17:59.448Z,21.68
2018-08-16T02:20:29.188Z,21.66
2018-08-16T02:22:59.047Z,21.66
2018-08-16T02:25:28.787Z,21.45
2018-08-16T02:27:58.496Z,21.49
2018-08-16T02:30:28.208Z,21.66
2018-08-16T02:32:58.230Z,21.75
2018-08-16T02:35:28.069Z,21.68
2018-08-16T02:37:57.800Z,21.61
2018-08-16T02:40:27.584Z,21.69
2018-08-16T02:42:57.355Z,21.72
2018-08-16T02:45:27.143Z,21.57
2018-08-16T02:47:56.901Z,21.64
2018-08-16T02:50:26.486Z,21.61
2018-08-16T02:52:56.184Z,21.58
2018-08-16T02:55:25.931Z,21.49
2018-08-16T02:57:55.625Z,21.52
2018-08-16T03:00:25.298Z,21.21
2018-08-16T03:02:55.489Z,21.37
2018-08-16T03:05:25.339Z,21.40
2018-08-16T03:07:55.104Z,21.37
2018-08-16T03:10:24.835Z,21.25
2018-08-16T03:12:54.586Z,21.36
2018-08-16T03:15:24.290Z,21.29
2018-08-16T03:17:54.088Z,21.14
2018-08-16T03:20:23.811Z,21.50
2018-08-16T03:22:53.649Z,21.65
2018-08-16T03:25:23.530Z,21.48
2018-08-16T03:27:53.293Z,21.18
2018-08-16T03:30:23.114Z,21.16
2018-08-16T03:32:52.802Z,21.04
2018-08-16T03:35:22.687Z,20.97
2018-08-16T03:37:52.300Z,20.68
2018-08-16T03:40:21.967Z,21.00
2018-08-16T03:42:51.722Z,21.11
2018-08-16T03:45:21.427Z,20.32
2018-08-16T03:47:51.300Z,20.10
2018-08-16T03:50:21.074Z,20.17
2018-08-16T03:52:50.859Z,20.79
2018-08-16T03:55:20.761Z,19.98
2018-08-16T03:57:50.511Z,19.38
2018-08-16T04:00:20.185Z,19.13
2018-08-16T04:02:49.853Z,19.91
2018-08-16T04:05:19.969Z,20.29
2018-08-16T04:07:49.688Z,20.10
2018-08-16T04:10:19.354Z,19.77
2018-08-16T04:12:49.137Z,20.22
2018-08-16T04:15:18.877Z,20.78
2018-08-16T04:17:48.704Z,21.17
2018-08-16T04:20:18.422Z,21.36
2018-08-16T04:22:48.177Z,21.35
2018-08-16T04:25:17.941Z,21.38
2018-08-16T04:27:47.665Z,21.62
2018-08-16T04:30:17.405Z,21.88
2018-08-16T04:32:47.130Z,21.86
2018-08-16T04:35:16.962Z,21.46
2018-08-16T04:37:46.751Z,21.50
2018-08-16T04:40:16.489Z,21.42
2018-08-16T04:42:46.313Z,21.85
2018-08-16T04:45:16.094Z,21.98
2018-08-16T04:47:45.729Z,21.87
2018-08-16T04:50:15.643Z,22.08
2018-08-16T04:52:45.378Z,21.65
2018-08-16T04:55:15.352Z,21.67
2018-08-16T04:57:45.271Z,21.77
2018-08-16T05:00:15.086Z,21.91
2018-08-16T05:02:44.820Z,22.03
2018-08-16T05:05:14.666Z,21.59
2018-08-16T05:07:44.716Z,21.93
2018-08-16T05:10:14.605Z,22.06
2018-08-16T05:12:44.387Z,22.28
2018-08-16T05:15:14.792Z,22.62
2018-08-16T05:17:45.476Z,21.74
2018-08-16T05:20:15.362Z,22.00
2018-08-16T05:22:45.205Z,22.11
2018-08-16T05:25:14.948Z,22.70
2018-08-16T05:27:45.288Z,22.79
2018-08-16T05:30:15.102Z,23.13
2018-08-16T05:32:44.980Z,22.55
2018-08-16T05:35:14.813Z,22.30
2018-08-16T05:37:44.580Z,22.48
2018-08-16T05:40:14.397Z,22.35
2018-08-16T05:42:44.140Z,22.48
2018-08-16T05:45:13.998Z,22.33
2018-08-16T05:47:43.661Z,22.79
2018-08-16T05:50:13.969Z,22.35
2018-08-16T05:52:43.712Z,23.01
2018-08-16T05:55:13.581Z,21.66
2018-08-16T05:57:43.762Z,23.12
2018-08-16T06:00:14.924Z,23.08
2018-08-16T06:02:44.769Z,23.20
2018-08-16T06:05:14.719Z,23.52
2018-08-16T06:07:44.532Z,24.14
2018-08-16T06:10:14.647Z,24.30
2018-08-16T06:12:44.492Z,24.90
2018-08-16T06:15:14.566Z,24.45
2018-08-16T06:17:44.481Z,23.96
2018-08-16T06:20:14.404Z,23.82
2018-08-16T06:22:44.191Z,24.20
2018-08-16T06:25:14.880Z,24.18
2018-08-16T06:27:45.493Z,24.20
2018-08-16T06:30:17.880Z,23.88
2018-08-16T06:32:47.911Z,23.58
2018-08-16T06:35:17.786Z,24.40
2018-08-16T06:37:48.437Z,23.90
2018-08-16T06:40:18.967Z,24.09
2018-08-16T06:42:49.499Z,24.85
2018-08-16T06:45:19.357Z,24.30
2018-08-16T06:47:51.259Z,24.82
2018-08-16T06:50:21.226Z,25.47
2018-08-16T06:52:51.144Z,25.73
2018-08-16T06:55:20.857Z,25.37
2018-08-16T06:57:51.390Z,26.06
2018-08-16T07:00:21.342Z,25.73
2018-08-16T07:02:51.252Z,25.92
2018-08-16T07:05:21.077Z,26.56
2018-08-16T07:07:50.659Z,26.40
2018-08-16T07:10:20.745Z,27.51
2018-08-16T07:12:50.708Z,28.20
2018-08-16T07:15:20.465Z,28.93
2018-08-16T07:17:50.421Z,28.77
2018-08-16T07:20:20.098Z,29.37
2018-08-16T07:22:50.164Z,29.25
2018-08-16T07:25:19.675Z,28.97
2018-08-16T07:27:49.548Z,28.09
2018-08-16T07:30:19.202Z,28.95
2018-08-16T07:32:49.055Z,29.77
2018-08-16T07:35:18.777Z,29.97
2018-08-16T07:37:48.720Z,29.44
2018-08-16T07:40:18.544Z,29.27
2018-08-16T07:42:48.221Z,29.39
2018-08-16T07:45:17.928Z,29.13
2018-08-16T07:47:47.747Z,30.38
2018-08-16T07:50:17.428Z,30.96
2018-08-16T07:52:47.341Z,31.50
2018-08-16T07:55:16.984Z,30.18
2018-08-16T07:57:46.703Z,31.10
2018-08-16T08:00:18.899Z,31.67
2018-08-16T08:02:48.624Z,32.33
2018-08-16T08:05:18.433Z,31.59
2018-08-16T08:07:48.873Z,33.21
2018-08-16T08:10:18.628Z,33.34
2018-08-16T08:12:48.717Z,33.83
2018-08-16T08:15:18.506Z,32.13
2018-08-16T08:17:48.225Z,31.71
2018-08-16T08:20:18.016Z,32.14
2018-08-16T08:22:47.932Z,33.66
2018-08-16T08:25:17.825Z,33.76
2018-08-16T08:27:47.619Z,34.66
2018-08-16T08:30:18.279Z,35.25
2018-08-16T08:32:48.154Z,35.39
2018-08-16T08:35:18.124Z,35.77
2018-08-16T08:38:00.988Z,34.49
2018-08-16T08:40:30.838Z,33.77
2018-08-16T08:43:00.546Z,33.95
2018-08-16T08:45:30.270Z,34.03
2018-08-16T08:48:00.450Z,34.33
2018-08-16T08:50:30.361Z,34.88
2018-08-16T08:53:10.582Z,33.92
2018-08-16T08:55:50.741Z,35.09
2018-08-16T08:58:31.671Z,36.12
2018-08-16T09:01:01.333Z,35.67
2018-08-16T09:03:31.259Z,35.80
2018-08-16T09:06:00.905Z,36.30
2018-08-16T09:08:32.475Z,36.30
2018-08-16T09:11:14.826Z,34.93
2018-08-16T09:13:56.783Z,35.60
2018-08-16T09:16:31.760Z,35.66
2018-08-16T09:19:01.940Z,36.24
2018-08-16T09:21:32.269Z,36.71
2018-08-16T09:24:02.238Z,36.34
2018-08-16T09:26:37.317Z,37.02
2018-08-16T09:29:19.536Z,36.26
2018-08-16T09:34:05.249Z,35.85
2018-08-16T09:36:35.477Z,35.87
2018-08-16T09:39:07.350Z,36.31
2018-08-16T09:41:37.387Z,36.15
2018-08-16T09:44:07.513Z,37.34
2018-08-16T09:47:06.199Z,37.66
2018-08-16T09:49:53.249Z,37.10
2018-08-16T09:52:23.526Z,37.26
2018-08-16T09:54:53.210Z,38.08
2018-08-16T09:57:22.872Z,37.82
2018-08-16T09:59:52.711Z,38.10
2018-08-16T10:02:22.368Z,38.76
2018-08-16T10:04:51.977Z,39.61
2018-08-16T10:07:21.713Z,36.14
2018-08-16T10:09:51.335Z,35.49
2018-08-16T10:12:21.040Z,37.05
2018-08-16T10:14:50.800Z,37.98
2018-08-16T10:17:20.538Z,38.24
2018-08-16T10:19:50.501Z,38.14
2018-08-16T10:22:20.336Z,37.16
2018-08-16T10:24:50.136Z,37.69
2018-08-16T10:27:19.964Z,36.47
2018-08-16T10:29:49.742Z,37.79
2018-08-16T10:32:19.516Z,36.01
2018-08-16T10:34:49.288Z,36.23
2018-08-16T10:37:18.937Z,35.82
2018-08-16T10:39:48.703Z,36.62
2018-08-16T10:42:18.490Z,37.13
2018-08-16T10:44:48.293Z,37.53
2018-08-16T10:47:18.076Z,37.55
2018-08-16T10:49:47.764Z,37.76
2018-08-16T10:52:17.499Z,36.15
2018-08-16T10:54:47.352Z,37.35
2018-08-16T10:57:17.229Z,38.46
2018-08-16T10:59:47.081Z,36.59
2018-08-16T11:02:16.850Z,37.51
2018-08-16T11:04:46.574Z,38.47
2018-08-16T11:07:16.419Z,38.41
2018-08-16T11:09:46.863Z,38.18
2018-08-16T11:12:16.752Z,37.08
2018-08-16T11:14:46.472Z,38.11
2018-08-16T11:17:16.603Z,37.62
2018-08-16T11:19:46.306Z,38.22
2018-08-16T11:22:15.984Z,38.53
2018-08-16T11:24:45.938Z,39.01
2018-08-16T11:27:15.768Z,38.91
2018-08-16T11:29:45.416Z,38.88
2018-08-16T11:32:15.223Z,38.87
2018-08-16T11:34:44.927Z,39.56
2018-08-16T11:37:15.179Z,40.05
2018-08-16T11:39:44.891Z,38.79
2018-08-16T11:42:14.592Z,38.22
2018-08-16T11:44:44.561Z,36.35
2018-08-16T11:47:14.196Z,35.55
2018-08-16T11:49:43.831Z,37.23
2018-08-16T11:52:13.563Z,38.67
2018-08-16T11:54:43.289Z,37.23
2018-08-16T11:57:12.961Z,37.09
2018-08-16T11:59:42.820Z,37.40
2018-08-16T12:02:12.723Z,38.33
2018-08-16T12:04:42.452Z,38.72
2018-08-16T12:07:12.108Z,36.29
2018-08-16T12:09:41.821Z,37.15
2018-08-16T12:12:11.597Z,37.29
2018-08-16T12:14:41.420Z,37.26
2018-08-16T12:17:11.122Z,38.02
2018-08-16T12:19:41.271Z,39.40
2018-08-16T12:22:10.914Z,38.28
2018-08-16T12:24:40.652Z,38.83
2018-08-16T12:27:10.401Z,38.68
2018-08-16T12:29:40.121Z,37.57
2018-08-16T12:32:09.976Z,38.40
2018-08-16T12:34:39.867Z,39.06
2018-08-16T12:37:09.776Z,38.96
2018-08-16T12:39:39.877Z,39.91
2018-08-16T12:42:09.680Z,37.28
2018-08-16T12:44:39.513Z,36.42
2018-08-16T12:47:09.309Z,36.37
2018-08-16T12:49:39.234Z,36.63
2018-08-16T12:52:09.858Z,37.67
2018-08-16T12:54:40.555Z,37.44
2018-08-16T12:57:10.329Z,36.29
2018-08-16T12:59:40.137Z,36.41
2018-08-16T13:02:09.926Z,36.79
2018-08-16T13:04:41.694Z,36.47
2018-08-16T13:07:11.562Z,37.05
2018-08-16T13:09:41.334Z,37.32
2018-08-16T13:12:11.107Z,36.70
2018-08-16T13:14:41.789Z,37.10
2018-08-16T13:17:11.499Z,35.76
2018-08-16T13:19:41.288Z,36.76
2018-08-16T13:22:11.345Z,36.42
2018-08-16T13:24:41.019Z,35.20
2018-08-16T13:27:10.864Z,36.43
2018-08-16T13:29:40.709Z,35.36
2018-08-16T13:32:10.445Z,35.02
2018-08-16T13:34:41.116Z,35.52
2018-08-16T13:37:10.865Z,35.80
2018-08-16T13:39:40.572Z,36.01
2018-08-16T13:42:10.229Z,35.38
2018-08-16T13:44:39.937Z,34.21
2018-08-16T13:47:09.548Z,34.00
2018-08-16T13:49:39.733Z,34.13
2018-08-16T13:52:10.450Z,34.45
2018-08-16T13:54:40.962Z,35.16
2018-08-16T13:57:10.927Z,34.69
2018-08-16T13:59:40.655Z,34.78
2018-08-16T14:02:10.557Z,33.74
2018-08-16T14:04:40.662Z,33.44
2018-08-16T14:07:10.431Z,33.67
2018-08-16T14:09:40.163Z,34.27
2018-08-16T14:12:09.961Z,34.83
2018-08-16T14:14:39.657Z,34.28
2018-08-16T14:17:09.441Z,34.07
2018-08-16T14:19:39.190Z,35.03
2018-08-16T14:22:09.041Z,34.51
2018-08-16T14:24:39.174Z,35.38
2018-08-16T14:27:08.933Z,35.66
2018-08-16T14:29:38.804Z,35.75
2018-08-16T14:32:08.763Z,35.44
2018-08-16T14:34:38.444Z,35.27
2018-08-16T14:37:08.292Z,34.75
2018-08-16T14:39:37.936Z,33.64
2018-08-16T14:42:07.832Z,33.18
2018-08-16T14:44:37.629Z,33.00
2018-08-16T14:47:08.046Z,33.56
2018-08-16T14:49:37.845Z,33.99
2018-08-16T14:52:07.599Z,33.51
2018-08-16T14:54:37.474Z,32.86
2018-08-16T14:57:07.965Z,33.02
2018-08-16T14:59:37.668Z,32.38
2018-08-16T15:02:07.490Z,32.19
2018-08-16T15:04:37.288Z,31.61
2018-08-16T15:07:07.113Z,31.92
2018-08-16T15:09:36.841Z,31.56
2018-08-16T15:12:06.738Z,31.55
2018-08-16T15:14:36.664Z,31.58
2018-08-16T15:17:06.289Z,31.79
2018-08-16T15:20:07.190Z,31.48
2018-08-16T15:22:36.793Z,31.19
2018-08-16T15:25:07.519Z,31.28
2018-08-16T15:27:37.224Z,31.34
2018-08-16T15:30:09.093Z,30.71
2018-08-16T15:32:39.049Z,30.72
2018-08-16T15:35:08.958Z,31.16
2018-08-16T15:37:38.870Z,30.66
2018-08-16T15:40:08.843Z,30.79
2018-08-16T15:42:39.972Z,30.49
2018-08-16T15:45:09.952Z,30.78
2018-08-16T15:47:39.826Z,30.71
2018-08-16T15:50:09.656Z,30.89
2018-08-16T15:52:40.431Z,30.67
2018-08-16T15:55:10.316Z,30.68
2018-08-16T15:57:40.154Z,30.92
2018-08-16T16:00:11.882Z,31.25
2018-08-16T16:02:43.918Z,31.10
2018-08-16T16:05:13.898Z,30.75
2018-08-16T16:07:43.983Z,30.86
2018-08-16T16:10:13.692Z,30.31
2018-08-16T16:12:46.580Z,30.66
2018-08-16T16:15:16.398Z,30.47
2018-08-16T16:17:46.563Z,30.44
2018-08-16T16:20:16.321Z,30.30
2018-08-16T16:22:46.523Z,30.40
2018-08-16T16:25:16.871Z,30.51
2018-08-16T16:27:46.629Z,30.25
2018-08-16T16:30:16.480Z,30.23
2018-08-16T16:32:46.614Z,30.21
2018-08-16T16:35:16.484Z,30.28
2018-08-16T16:37:46.392Z,30.51
2018-08-16T16:40:16.134Z,30.44
2018-08-16T16:42:45.851Z,30.31
2018-08-16T16:45:15.542Z,29.73
2018-08-16T16:47:45.351Z,29.85
2018-08-16T16:50:15.086Z,29.62
2018-08-16T16:52:44.830Z,29.53
2018-08-16T16:55:14.523Z,29.81
2018-08-16T16:57:44.312Z,29.84
2018-08-16T17:00:14.167Z,29.87
2018-08-16T17:02:43.883Z,29.74
2018-08-16T17:05:13.670Z,29.68
2018-08-16T17:07:43.352Z,29.35
2018-08-16T17:10:14.146Z,29.61
2018-08-16T17:12:44.525Z,29.58
2018-08-16T17:15:14.370Z,29.51
2018-08-16T17:17:43.976Z,29.40
2018-08-16T17:20:13.745Z,28.96
2018-08-16T17:22:43.573Z,28.90
2018-08-16T17:25:13.297Z,28.87
2018-08-16T17:27:43.428Z,28.90
2018-08-16T17:30:13.206Z,28.25
2018-08-16T17:32:42.976Z,28.29
2018-08-16T17:35:12.609Z,27.57
2018-08-16T17:37:42.237Z,27.26
2018-08-16T17:40:12.153Z,27.24
2018-08-16T17:42:41.784Z,27.26
2018-08-16T17:45:11.607Z,27.19
2018-08-16T17:47:41.225Z,26.92
2018-08-16T17:50:11.353Z,27.32
2018-08-16T17:52:41.172Z,27.26
2018-08-16T17:55:11.010Z,26.79
2018-08-16T17:57:40.744Z,26.43
2018-08-16T18:00:12.105Z,26.30
2018-08-16T18:02:43.053Z,26.39
2018-08-16T18:05:12.883Z,26.27
2018-08-16T18:07:42.697Z,26.27
2018-08-16T18:10:12.569Z,26.17
2018-08-16T18:12:42.798Z,26.05
2018-08-16T18:15:13.154Z,26.24
2018-08-16T18:17:42.817Z,26.78
2018-08-16T18:20:12.463Z,26.20
2018-08-16T18:22:42.256Z,25.95
2018-08-16T18:25:12.056Z,25.67
2018-08-16T18:27:41.993Z,25.59
2018-08-16T18:30:13.462Z,25.54
2018-08-16T18:32:43.630Z,25.30
2018-08-16T18:35:13.773Z,25.34
2018-08-16T18:37:43.769Z,25.34
2018-08-16T18:40:13.948Z,25.23
2018-08-16T18:42:44.942Z,25.25
2018-08-16T18:45:15.115Z,25.00
2018-08-16T18:47:45.131Z,24.99
2018-08-16T18:50:15.036Z,25.33
2018-08-16T18:52:45.768Z,25.55
2018-08-16T18:55:15.578Z,25.60
2018-08-16T18:57:45.418Z,25.55
2018-08-16T19:00:15.281Z,25.38
2018-08-16T19:02:45.014Z,25.28
2018-08-16T19:05:14.878Z,25.14
2018-08-16T19:07:44.636Z,25.11
2018-08-16T19:10:14.307Z,24.91
2018-08-16T19:12:44.091Z,24.73
2018-08-16T19:15:13.915Z,24.84
2018-08-16T19:17:43.869Z,24.99
2018-08-16T19:20:13.604Z,25.21
2018-08-16T19:22:43.927Z,25.68
2018-08-16T19:25:13.829Z,26.00
2018-08-16T19:27:43.682Z,25.74
2018-08-16T19:30:13.513Z,25.92
2018-08-16T19:32:43.658Z,26.08
2018-08-16T19:35:13.467Z,26.13
2018-08-16T19:37:43.235Z,26.23
2018-08-16T19:40:13.260Z,26.29
2018-08-16T19:42:42.936Z,26.33
2018-08-16T19:45:12.834Z,26.37
2018-08-16T19:47:42.555Z,26.41
2018-08-16T19:50:12.992Z,26.41
2018-08-16T19:52:42.818Z,26.41
2018-08-16T19:55:12.697Z,26.37
2018-08-16T19:57:42.488Z,26.44
2018-08-16T20:00:12.495Z,26.44
2018-08-16T20:02:42.276Z,26.27
2018-08-16T20:05:12.070Z,25.79
2018-08-16T20:07:41.797Z,25.74
2018-08-16T20:10:12.183Z,25.53
2018-08-16T20:12:42.132Z,25.88
2018-08-16T20:15:12.018Z,26.09
2018-08-16T20:17:41.880Z,26.19
2018-08-16T20:20:11.668Z,26.28
2018-08-16T20:22:41.784Z,26.20
2018-08-16T20:25:11.544Z,26.08
2018-08-16T20:27:41.171Z,25.20
2018-08-16T20:30:11.142Z,25.69
2018-08-16T20:32:41.062Z,25.87
2018-08-16T20:35:11.248Z,25.57
2018-08-16T20:37:40.943Z,25.92
2018-08-16T20:40:10.783Z,25.95
2018-08-16T20:42:40.631Z,26.15
2018-08-16T20:45:10.466Z,25.78
2018-08-16T20:47:40.188Z,25.58
2018-08-16T20:50:10.058Z,25.80
2018-08-16T20:52:39.801Z,25.79
2018-08-16T20:55:09.655Z,25.67
2018-08-16T20:57:39.392Z,25.47
2018-08-16T21:00:10.841Z,25.57
2018-08-16T21:02:41.356Z,25.76
2018-08-16T21:05:11.196Z,25.55
2018-08-16T21:07:41.088Z,25.30
2018-08-16T21:10:11.646Z,25.39
2018-08-16T21:12:42.008Z,25.50
2018-08-16T21:15:11.903Z,25.94
2018-08-16T21:17:41.743Z,25.67
2018-08-16T21:20:11.567Z,25.36
2018-08-16T21:22:41.501Z,25.27
2018-08-16T21:25:11.299Z,25.14
2018-08-16T21:27:41.100Z,25.15
2018-08-16T21:30:10.991Z,25.31
2018-08-16T21:32:40.898Z,25.14
2018-08-16T21:35:10.543Z,25.11
2018-08-16T21:37:40.471Z,25.23
2018-08-16T21:40:10.162Z,25.45
2018-08-16T21:42:39.759Z,24.99
2018-08-16T21:45:09.544Z,24.91
2018-08-16T21:47:39.168Z,24.95
2018-08-16T21:50:09.590Z,25.13
2018-08-16T21:52:39.325Z,24.93
2018-08-16T21:55:09.133Z,24.57
2018-08-16T21:57:38.870Z,24.72
2018-08-16T22:00:10.208Z,24.46
2018-08-16T22:02:40.111Z,24.58
2018-08-16T22:05:09.866Z,24.71
2018-08-16T22:08:11.317Z,25.03
2018-08-16T22:10:42.481Z,24.61
2018-08-16T22:13:12.371Z,24.43
2018-08-16T22:15:42.290Z,24.40
2018-08-16T22:18:12.186Z,24.46
2018-08-16T22:20:42.273Z,24.58
2018-08-16T22:23:12.202Z,24.69
2018-08-16T22:25:42.119Z,24.85
2018-08-16T22:28:12.009Z,25.13
2018-08-16T22:30:41.912Z,24.91
2018-08-16T22:33:12.108Z,24.84
2018-08-16T22:35:41.817Z,25.04
2018-08-16T22:38:12.111Z,24.58
2018-08-16T22:40:41.916Z,24.77
2018-08-16T22:43:11.721Z,24.62
2018-08-16T22:45:41.593Z,24.50
2018-08-16T22:48:11.315Z,24.24
2018-08-16T22:50:41.116Z,24.22
2018-08-16T22:53:11.026Z,24.31
2018-08-16T22:55:40.967Z,24.03
2018-08-16T22:58:10.852Z,24.13
2018-08-16T23:00:40.844Z,24.27
2018-08-16T23:03:10.928Z,24.10
2018-08-16T23:05:40.834Z,23.77
2018-08-16T23:08:10.735Z,23.61
2018-08-16T23:10:40.629Z,23.66
2018-08-16T23:13:10.548Z,23.89
2018-08-16T23:15:40.459Z,24.38
2018-08-16T23:18:10.540Z,24.59
2018-08-16T23:20:40.425Z,24.44
2018-08-16T23:23:10.420Z,24.54
2018-08-16T23:25:40.316Z,24.51
2018-08-16T23:28:10.219Z,24.17
2018-08-16T23:30:40.124Z,24.40
2018-08-16T23:33:10.101Z,24.78
2018-08-16T23:35:40.129Z,24.90
2018-08-16T23:38:10.038Z,25.03
2018-08-16T23:40:40.508Z,25.17
2018-08-16T23:43:10.357Z,25.24
2018-08-16T23:45:40.231Z,25.09
2018-08-16T23:48:20.529Z,24.87
2018-08-16T23:50:51.362Z,25.10
2018-08-16T23:53:21.257Z,25.17
2018-08-16T23:55:51.149Z,25.05
2018-08-16T23:58:21.376Z,24.91
